Newman, Western Australia

9:15 PM AWST on September 22, 2014 (GMT +0800)
Newman | Change Station
CLOSE
Current Station
Airport
Location: Newman Airport,
Elevation: 1722 ft
Nearby Weather Stations

Elev 1722 ft 23.42 °S, 119.80 °E | Updated 1 hour ago

Clear
Clear
66 °F
Feels Like 66 °F
N
8
Wind Variable Wind from SW

Today
High -- | Low -- °F
--% Chance of Precip.
Yesterday
High -- | Low -- °F
Precip. -- in
5:50 AM 5:56 PM
Waning Crescent, 3% visible
Pressure 30.12 in
Visibility -9999.0 miles
Clouds
Dew Point 32 °F
Humidity 28%
Rainfall 0.00 in
Snow Depth Not available.
UV Not available.
Pollen Not available.
Air Quality Not available.
Flu Activity Not available.
METAR YNWN 221200Z AUTO 22007KT //// // NCD 19/M00 Q1020

More Conditions Fewer Conditions

Pressure 30.12 in
Visibility -9999.0 miles
Clouds
Dew Point 32 °F
Humidity 28%
Rainfall 0.00 in
Snow Depth Not available.
UV Not available.
Pollen Not available.
Air Quality Not available.
Flu Activity Not available.
METAR YNWN 221200Z AUTO 22007KT //// // NCD 19/M00 Q1020

More Conditions Fewer Conditions

10-Day Weather Forecast

Almanac

Astronomy

Sep. 22, 2014 Rise Set
Actual Time 5:50 AM AWST 5:56 PM AWST
Civil Twilight 5:28 AM AWST 6:19 PM AWST
Nautical Twilight 5:02 AM AWST 6:45 PM AWST
Astronomical Twilight 4:35 AM AWST 7:11 PM AWST
Moon 4:22 AM AWST 4:20 PM AWST
Length of Visible Light 12h 50m
Length of Day
12h 05m
Tomorrow will be 1m 21s longer.
Waning Crescent, 3% of the Moon is Illuminated
Today
Waning Crescent
Sep 24
New
Oct 1
First Quarter
Oct 8
Full
Oct 15
Last Quarter

Yesterday's Extremes

Country Highs Country Lows

Community

WunderPhotos

Upload Photos

1,755,429 photos uploaded!

Nearby

Snow Depth

Not available.

Earthquake Activity

City Distance Mag. Time & Date
No recent earthquake activity has been reported nearby.
Minimum magnitude displayed is 2.5.

Coastal Water Temperatures

Place Temperature
No Stations Reporting

Nearby Weather Stations